Time;durP1;ratioP1;P1;durP2;ratioP2;P2;SDS_P1;SDS_P2;PMS_P1;PMS_P2;Temp;Humidity;BMP_temperature;BMP_pressure;BME280_temperature;BME280_humidity;BME280_pressure;Samples;Min_cycle;Max_cycle;Signal;HPM_P1;HPM_P2
2022/11/20 00:01:00;;;;;;;;;;;24.40;34.30;;;;;;490979;242;1196;-75
2022/11/20 00:03:01;;;;;;;;;;;24.50;34.10;;;;;;490884;242;1166;-75
2022/11/20 00:05:02;;;;;;;;;;;24.40;34.00;;;;;;490854;242;2188;-75
2022/11/20 00:07:04;;;;;;;;;;;24.50;34.00;;;;;;490882;242;1320;-75
2022/11/20 00:09:05;;;;;;;;;;;24.40;34.00;;;;;;490753;242;1170;-75
2022/11/20 00:11:07;;;;;;;;;;;24.40;34.10;;;;;;490866;242;1254;-75
2022/11/20 00:13:08;;;;;;;;;;;24.40;34.20;;;;;;490744;242;1206;-75
2022/11/20 00:15:09;;;;;;;;;;;24.40;34.30;;;;;;490776;242;1212;-75
2022/11/20 00:17:11;;;;;;;;;;;24.40;34.30;;;;;;490771;242;1441;-75
2022/11/20 00:19:12;;;;;;;;;;;24.40;34.30;;;;;;490895;242;1239;-75
2022/11/20 00:21:13;;;;;;;;;;;24.40;34.30;;;;;;490782;242;1225;-75
2022/11/20 00:23:15;;;;;;;;;;;24.40;34.00;;;;;;490820;242;2180;-75
2022/11/20 00:25:16;;;;;;;;;;;24.30;34.20;;;;;;490899;242;1586;-75
2022/11/20 00:27:17;;;;;;;;;;;24.40;34.30;;;;;;490906;242;1180;-75
2022/11/20 00:29:19;;;;;;;;;;;24.40;34.50;;;;;;490875;242;1190;-75
2022/11/20 00:31:20;;;;;;;;;;;24.30;34.40;;;;;;490896;242;1290;-75
2022/11/20 00:33:21;;;;;;;;;;;24.30;34.30;;;;;;490803;242;1218;-75
2022/11/20 00:35:23;;;;;;;;;;;24.30;34.10;;;;;;490872;242;1426;-75
2022/11/20 00:37:24;;;;;;;;;;;24.30;34.10;;;;;;490910;242;1151;-75
2022/11/20 00:39:25;;;;;;;;;;;24.30;34.10;;;;;;490870;242;1339;-75
2022/11/20 00:41:27;;;;;;;;;;;24.30;34.20;;;;;;490823;242;1229;-75
2022/11/20 00:43:28;;;;;;;;;;;24.40;34.10;;;;;;490848;242;2189;-75
2022/11/20 00:45:29;;;;;;;;;;;24.40;34.30;;;;;;490953;242;1205;-75
2022/11/20 00:47:31;;;;;;;;;;;24.40;34.30;;;;;;490935;242;1188;-75
2022/11/20 00:49:32;;;;;;;;;;;24.30;34.40;;;;;;490890;242;1314;-75
2022/11/20 00:51:33;;;;;;;;;;;24.30;34.10;;;;;;490982;242;1175;-75
2022/11/20 00:53:35;;;;;;;;;;;24.30;34.10;;;;;;490892;242;1250;-75
2022/11/20 00:55:36;;;;;;;;;;;24.30;34.20;;;;;;490868;242;1178;-75
2022/11/20 00:57:37;;;;;;;;;;;24.30;34.30;;;;;;490843;242;1140;-75
2022/11/20 00:59:39;;;;;;;;;;;24.30;34.60;;;;;;490835;242;1188;-75
2022/11/20 01:01:40;;;;;;;;;;;24.20;34.40;;;;;;490901;242;1250;-75
2022/11/20 01:03:41;;;;;;;;;;;24.20;34.30;;;;;;490801;242;2185;-75
2022/11/20 01:05:43;;;;;;;;;;;24.20;34.20;;;;;;490822;242;1137;-75
2022/11/20 01:07:44;;;;;;;;;;;24.20;34.20;;;;;;490741;242;1238;-75
2022/11/20 01:09:45;;;;;;;;;;;24.20;34.30;;;;;;490759;242;1315;-75
2022/11/20 01:11:47;;;;;;;;;;;24.20;34.20;;;;;;490922;242;1160;-75
2022/11/20 01:13:48;;;;;;;;;;;24.30;34.30;;;;;;490716;242;1279;-75
2022/11/20 01:15:49;;;;;;;;;;;24.10;34.50;;;;;;490710;242;1181;-75
2022/11/20 01:17:51;;;;;;;;;;;24.10;34.50;;;;;;490841;242;1274;-75
2022/11/20 01:19:52;;;;;;;;;;;24.20;34.30;;;;;;490815;242;1352;-75
2022/11/20 01:21:53;;;;;;;;;;;24.10;34.20;;;;;;490849;242;1169;-75
2022/11/20 01:23:55;;;;;;;;;;;24.10;34.20;;;;;;490769;242;2185;-75
2022/11/20 01:25:56;;;;;;;;;;;24.10;34.30;;;;;;490798;242;1269;-75
2022/11/20 01:27:57;;;;;;;;;;;24.00;34.40;;;;;;490903;242;1327;-75
2022/11/20 01:29:59;;;;;;;;;;;24.00;34.50;;;;;;490861;242;1177;-75
2022/11/20 01:32:00;;;;;;;;;;;24.10;34.50;;;;;;490916;242;1459;-75
2022/11/20 01:34:01;;;;;;;;;;;24.10;34.30;;;;;;490927;242;1165;-75
2022/11/20 01:36:03;;;;;;;;;;;24.10;34.30;;;;;;490861;242;1240;-75
2022/11/20 01:38:04;;;;;;;;;;;24.10;34.30;;;;;;490812;242;1276;-75
2022/11/20 01:40:05;;;;;;;;;;;24.10;34.30;;;;;;490855;242;1223;-75
2022/11/20 01:44:26;;;;;;;;;;;24.10;34.60;;;;;;490829;243;2137;-75
2022/11/20 01:46:27;;;;;;;;;;;24.00;34.50;;;;;;490922;242;1177;-75
2022/11/20 01:48:29;;;;;;;;;;;24.00;34.60;;;;;;490789;242;1158;-75
2022/11/20 01:50:30;;;;;;;;;;;24.10;34.30;;;;;;490776;242;1176;-75
2022/11/20 01:52:31;;;;;;;;;;;24.00;34.20;;;;;;490829;242;1220;-75
2022/11/20 01:54:33;;;;;;;;;;;24.00;34.20;;;;;;490789;242;1207;-75
2022/11/20 01:56:34;;;;;;;;;;;24.00;34.30;;;;;;490777;242;1683;-75
2022/11/20 01:58:35;;;;;;;;;;;24.00;34.30;;;;;;490801;242;1169;-75
2022/11/20 02:00:36;;;;;;;;;;;24.00;34.60;;;;;;490817;242;1161;-75
2022/11/20 02:02:38;;;;;;;;;;;24.00;34.40;;;;;;490842;242;1279;-75
2022/11/20 02:04:39;;;;;;;;;;;24.00;34.30;;;;;;490745;242;2180;-75
2022/11/20 02:06:40;;;;;;;;;;;24.00;34.20;;;;;;490825;242;1246;-75
2022/11/20 02:08:42;;;;;;;;;;;24.00;34.20;;;;;;490815;242;1192;-75
2022/11/20 02:10:43;;;;;;;;;;;24.00;34.20;;;;;;490802;242;1457;-75
2022/11/20 02:15:04;;;;;;;;;;;24.00;34.30;;;;;;490748;243;1294;-75
2022/11/20 02:17:05;;;;;;;;;;;24.00;34.30;;;;;;490699;242;1288;-75
2022/11/20 02:19:06;;;;;;;;;;;24.00;34.40;;;;;;490880;242;1224;-75
2022/11/20 02:21:08;;;;;;;;;;;24.00;34.30;;;;;;490807;242;1184;-75
2022/11/20 02:23:09;;;;;;;;;;;23.90;34.40;;;;;;490744;242;1240;-75
2022/11/20 02:25:10;;;;;;;;;;;24.00;34.30;;;;;;490776;242;2213;-75
2022/11/20 02:27:12;;;;;;;;;;;24.00;34.40;;;;;;490774;242;1344;-75
2022/11/20 02:29:13;;;;;;;;;;;24.00;34.50;;;;;;490719;242;1236;-75
2022/11/20 02:31:14;;;;;;;;;;;24.00;34.50;;;;;;490798;242;1349;-75
2022/11/20 02:33:16;;;;;;;;;;;24.10;34.60;;;;;;490756;242;1242;-75
2022/11/20 02:35:22;;;;;;;;;;;24.00;34.60;;;;;;490804;242;1281;-75
2022/11/20 02:37:23;;;;;;;;;;;24.00;34.60;;;;;;490870;242;1268;-75
2022/11/20 02:39:25;;;;;;;;;;;24.00;34.70;;;;;;490770;242;1199;-75
2022/11/20 02:41:26;;;;;;;;;;;23.90;34.30;;;;;;490760;242;1124;-75
2022/11/20 02:43:27;;;;;;;;;;;24.00;34.30;;;;;;490783;242;1168;-75
2022/11/20 02:45:29;;;;;;;;;;;24.00;34.30;;;;;;490775;242;2228;-75
2022/11/20 02:47:30;;;;;;;;;;;24.00;34.30;;;;;;490800;242;1207;-75
2022/11/20 02:49:31;;;;;;;;;;;23.90;34.40;;;;;;490920;242;1280;-75
2022/11/20 02:51:33;;;;;;;;;;;23.90;34.40;;;;;;490869;242;1227;-75
2022/11/20 02:53:34;;;;;;;;;;;23.80;34.50;;;;;;490864;242;1205;-75
2022/11/20 02:55:36;;;;;;;;;;;23.70;35.20;;;;;;490927;242;1278;-74
2022/11/20 02:57:37;;;;;;;;;;;23.60;35.20;;;;;;490837;242;1450;-75
2022/11/20 02:59:38;;;;;;;;;;;23.70;35.10;;;;;;490944;242;1193;-75
2022/11/20 03:01:39;;;;;;;;;;;23.70;34.80;;;;;;490837;242;1142;-75
2022/11/20 03:03:41;;;;;;;;;;;23.80;34.70;;;;;;490931;242;1179;-75
2022/11/20 03:05:42;;;;;;;;;;;23.70;34.70;;;;;;490854;242;2165;-74
2022/11/20 03:07:43;;;;;;;;;;;23.70;34.80;;;;;;490911;242;1226;-74
2022/11/20 03:09:45;;;;;;;;;;;23.70;34.60;;;;;;490910;242;1150;-74
2022/11/20 03:11:46;;;;;;;;;;;23.70;34.60;;;;;;490942;242;1127;-75
2022/11/20 03:13:48;;;;;;;;;;;23.80;34.70;;;;;;490923;242;1297;-75
2022/11/20 03:15:49;;;;;;;;;;;23.90;34.80;;;;;;490946;242;1208;-75
2022/11/20 03:17:50;;;;;;;;;;;23.90;34.40;;;;;;490938;242;1152;-75
2022/11/20 03:19:51;;;;;;;;;;;23.80;34.50;;;;;;490883;242;1305;-74
2022/11/20 03:21:53;;;;;;;;;;;23.80;34.50;;;;;;490865;242;1186;-75
2022/11/20 03:23:54;;;;;;;;;;;23.70;34.90;;;;;;490873;242;1210;-75
2022/11/20 03:25:56;;;;;;;;;;;23.80;35.00;;;;;;490792;242;2169;-75
2022/11/20 03:27:57;;;;;;;;;;;23.80;34.60;;;;;;490749;242;1196;-75
2022/11/20 03:29:58;;;;;;;;;;;23.70;34.60;;;;;;490712;242;1162;-75
2022/11/20 03:31:59;;;;;;;;;;;23.70;34.60;;;;;;490763;242;1245;-75
2022/11/20 03:34:01;;;;;;;;;;;23.70;34.60;;;;;;490691;242;1155;-75
2022/11/20 03:36:02;;;;;;;;;;;23.70;34.80;;;;;;490751;242;1271;-75
2022/11/20 03:38:03;;;;;;;;;;;23.60;35.00;;;;;;490787;242;1180;-75
2022/11/20 03:40:05;;;;;;;;;;;23.60;34.90;;;;;;490790;242;1201;-75
2022/11/20 03:42:44;;;;;;;;;;;23.40;35.00;;;;;;490818;242;1212;-75
2022/11/20 03:44:08;;;;;;;;;;;23.40;35.10;;;;;;489224;243;1318;-75
2022/11/20 03:46:09;;;;;;;;;;;23.40;34.90;;;;;;490719;242;2157;-75
2022/11/20 03:48:10;;;;;;;;;;;23.40;35.20;;;;;;490791;242;1231;-75
2022/11/20 03:50:12;;;;;;;;;;;23.40;35.80;;;;;;490757;242;1348;-75
2022/11/20 03:52:13;;;;;;;;;;;23.40;35.10;;;;;;490756;242;1218;-74
2022/11/20 03:54:15;;;;;;;;;;;23.50;35.00;;;;;;490771;242;1219;-75
2022/11/20 03:56:16;;;;;;;;;;;23.50;35.40;;;;;;490781;242;1119;-75
2022/11/20 03:58:18;;;;;;;;;;;23.40;35.50;;;;;;490748;242;1255;-75
2022/11/20 04:00:19;;;;;;;;;;;23.40;35.20;;;;;;490812;242;1564;-75
2022/11/20 04:02:20;;;;;;;;;;;23.50;35.00;;;;;;490776;242;1117;-74
2022/11/20 04:04:22;;;;;;;;;;;23.50;35.10;;;;;;490822;242;1193;-74
2022/11/20 04:06:23;;;;;;;;;;;23.40;35.60;;;;;;490786;242;2201;-74
2022/11/20 04:08:24;;;;;;;;;;;23.40;35.40;;;;;;490833;242;1201;-74
2022/11/20 04:10:26;;;;;;;;;;;23.50;34.90;;;;;;490876;242;1267;-75
2022/11/20 04:12:27;;;;;;;;;;;23.50;34.80;;;;;;490814;242;1154;-75
2022/11/20 04:14:28;;;;;;;;;;;23.50;35.00;;;;;;490830;242;1205;-75
2022/11/20 04:16:30;;;;;;;;;;;23.60;35.30;;;;;;490842;242;1229;-75
2022/11/20 04:18:31;;;;;;;;;;;23.60;35.10;;;;;;490799;242;1205;-75
2022/11/20 04:20:32;;;;;;;;;;;23.60;34.70;;;;;;490897;242;1191;-75
2022/11/20 04:22:34;;;;;;;;;;;23.40;35.50;;;;;;490865;242;1143;-75
2022/11/20 04:24:35;;;;;;;;;;;23.40;35.20;;;;;;490782;242;1400;-75
2022/11/20 04:26:36;;;;;;;;;;;23.40;35.30;;;;;;490873;242;2113;-75
2022/11/20 04:28:38;;;;;;;;;;;23.50;35.50;;;;;;490712;242;1282;-75
2022/11/20 04:30:39;;;;;;;;;;;23.40;35.00;;;;;;490822;242;1378;-75
2022/11/20 04:32:40;;;;;;;;;;;23.50;35.00;;;;;;490833;242;1345;-75
2022/11/20 04:34:42;;;;;;;;;;;23.50;35.50;;;;;;490791;242;1169;-75
2022/11/20 04:36:43;;;;;;;;;;;23.60;34.90;;;;;;490778;242;1347;-75
2022/11/20 04:38:44;;;;;;;;;;;23.60;34.80;;;;;;490786;242;1454;-75
2022/11/20 04:40:46;;;;;;;;;;;23.70;35.30;;;;;;490833;242;1215;-75
2022/11/20 04:42:47;;;;;;;;;;;23.60;34.70;;;;;;490814;242;1151;-74
2022/11/20 04:44:48;;;;;;;;;;;23.70;34.80;;;;;;490814;242;2189;-74
2022/11/20 04:46:50;;;;;;;;;;;23.80;34.90;;;;;;490897;242;1333;-74
2022/11/20 04:48:51;;;;;;;;;;;23.70;34.40;;;;;;490814;242;1191;-74
2022/11/20 04:50:52;;;;;;;;;;;23.90;34.70;;;;;;490790;242;1222;-74
2022/11/20 04:52:54;;;;;;;;;;;23.90;34.30;;;;;;490909;242;1186;-75
2022/11/20 04:54:55;;;;;;;;;;;23.90;34.60;;;;;;490846;242;1192;-75
2022/11/20 04:56:56;;;;;;;;;;;23.90;34.60;;;;;;490828;242;1207;-75
2022/11/20 04:58:58;;;;;;;;;;;23.90;34.30;;;;;;490751;242;1199;-75
2022/11/20 05:00:59;;;;;;;;;;;23.90;34.60;;;;;;490789;242;1195;-75
2022/11/20 05:03:00;;;;;;;;;;;23.90;34.40;;;;;;490770;242;1297;-75
2022/11/20 05:05:02;;;;;;;;;;;23.90;34.20;;;;;;490832;242;2144;-75
2022/11/20 05:07:03;;;;;;;;;;;23.90;34.60;;;;;;490820;242;1221;-75
2022/11/20 05:09:04;;;;;;;;;;;23.90;34.50;;;;;;490817;242;1211;-75
2022/11/20 05:11:06;;;;;;;;;;;23.80;34.20;;;;;;490878;242;1245;-75
2022/11/20 05:13:07;;;;;;;;;;;24.00;34.60;;;;;;490757;242;1182;-75
2022/11/20 05:15:08;;;;;;;;;;;23.90;34.30;;;;;;490780;242;1271;-75
2022/11/20 05:17:10;;;;;;;;;;;23.90;34.80;;;;;;490755;242;1314;-75
2022/11/20 05:19:11;;;;;;;;;;;23.60;34.60;;;;;;490685;242;1181;-75
2022/11/20 05:21:12;;;;;;;;;;;23.60;34.80;;;;;;490764;242;1323;-75
2022/11/20 05:23:14;;;;;;;;;;;23.60;35.30;;;;;;490812;242;1275;-75
2022/11/20 05:25:15;;;;;;;;;;;23.60;34.70;;;;;;490828;242;2181;-75
2022/11/20 05:27:16;;;;;;;;;;;23.60;34.80;;;;;;490744;242;1304;-75
2022/11/20 05:29:18;;;;;;;;;;;23.60;35.00;;;;;;490753;242;1273;-75
2022/11/20 05:31:19;;;;;;;;;;;23.80;34.50;;;;;;490743;242;1197;-75
2022/11/20 05:33:20;;;;;;;;;;;23.80;34.30;;;;;;490760;242;1513;-75
2022/11/20 05:35:22;;;;;;;;;;;23.90;34.50;;;;;;490880;242;1370;-75
2022/11/20 05:37:23;;;;;;;;;;;23.90;34.50;;;;;;490758;242;1159;-75
2022/11/20 05:39:24;;;;;;;;;;;24.00;34.20;;;;;;490812;242;1280;-75
2022/11/20 05:41:26;;;;;;;;;;;24.00;34.30;;;;;;490836;242;1253;-75
2022/11/20 05:43:27;;;;;;;;;;;23.90;34.10;;;;;;490790;242;1224;-75
2022/11/20 05:45:28;;;;;;;;;;;23.90;34.50;;;;;;490755;242;2229;-75
2022/11/20 05:47:30;;;;;;;;;;;23.90;34.40;;;;;;490837;242;1278;-75
2022/11/20 05:49:31;;;;;;;;;;;23.90;34.20;;;;;;490886;242;1242;-75
2022/11/20 05:51:32;;;;;;;;;;;23.90;34.50;;;;;;490994;242;1182;-75
2022/11/20 05:53:34;;;;;;;;;;;23.90;34.40;;;;;;490809;242;1253;-75
2022/11/20 05:55:35;;;;;;;;;;;23.70;34.30;;;;;;490804;242;1331;-75
2022/11/20 05:57:36;;;;;;;;;;;23.70;35.10;;;;;;490928;242;1092;-75
2022/11/20 05:59:38;;;;;;;;;;;23.60;34.80;;;;;;490839;242;1247;-75
2022/11/20 06:01:39;;;;;;;;;;;23.60;34.50;;;;;;490911;242;1188;-75
2022/11/20 06:03:42;;;;;;;;;;;23.70;34.50;;;;;;490921;242;1250;-75
2022/11/20 06:05:42;;;;;;;;;;;23.70;34.80;;;;;;490805;242;2185;-75
2022/11/20 06:07:43;;;;;;;;;;;23.70;34.80;;;;;;491019;242;1164;-75
2022/11/20 06:09:44;;;;;;;;;;;23.70;34.30;;;;;;490904;242;1130;-75
2022/11/20 06:11:46;;;;;;;;;;;23.80;34.70;;;;;;490920;242;1190;-75
2022/11/20 06:13:47;;;;;;;;;;;23.70;34.60;;;;;;490867;242;1173;-75
2022/11/20 06:15:48;;;;;;;;;;;23.80;34.30;;;;;;490896;242;1289;-75
2022/11/20 06:17:50;;;;;;;;;;;23.80;34.50;;;;;;490918;242;1341;-75
2022/11/20 06:19:51;;;;;;;;;;;24.00;34.10;;;;;;490916;242;1303;-75
2022/11/20 06:21:52;;;;;;;;;;;24.10;33.70;;;;;;490820;242;1193;-75
2022/11/20 06:23:54;;;;;;;;;;;24.20;34.00;;;;;;490889;242;1221;-75
2022/11/20 06:25:55;;;;;;;;;;;24.20;33.60;;;;;;490875;242;2384;-75
2022/11/20 06:27:56;;;;;;;;;;;24.30;33.50;;;;;;490764;242;1191;-75
2022/11/20 06:29:58;;;;;;;;;;;24.40;33.60;;;;;;490751;242;1209;-75
2022/11/20 06:31:59;;;;;;;;;;;24.40;33.20;;;;;;490699;242;1191;-75
2022/11/20 06:34:00;;;;;;;;;;;24.50;33.40;;;;;;490823;242;1412;-75
2022/11/20 06:36:02;;;;;;;;;;;24.50;33.40;;;;;;490752;242;1225;-75
2022/11/20 06:38:03;;;;;;;;;;;24.50;33.20;;;;;;490748;242;1156;-75
2022/11/20 06:40:04;;;;;;;;;;;24.40;33.60;;;;;;490822;242;1283;-75
2022/11/20 06:42:06;;;;;;;;;;;24.40;33.40;;;;;;490737;242;1230;-75
2022/11/20 06:44:07;;;;;;;;;;;24.40;33.30;;;;;;490745;242;1187;-75
2022/11/20 06:46:08;;;;;;;;;;;24.40;33.70;;;;;;490693;242;2204;-75
2022/11/20 06:48:10;;;;;;;;;;;24.40;33.50;;;;;;490789;242;1187;-75
2022/11/20 06:50:11;;;;;;;;;;;24.40;33.20;;;;;;490825;242;1292;-75
2022/11/20 06:52:12;;;;;;;;;;;24.30;33.30;;;;;;490870;242;1213;-75
2022/11/20 06:54:14;;;;;;;;;;;24.40;33.50;;;;;;490911;242;1170;-75
2022/11/20 06:56:15;;;;;;;;;;;24.30;33.70;;;;;;490779;242;1300;-75
2022/11/20 06:58:16;;;;;;;;;;;24.30;33.30;;;;;;490767;242;1234;-75
2022/11/20 07:00:18;;;;;;;;;;;24.40;33.50;;;;;;490812;242;1153;-75
2022/11/20 07:02:19;;;;;;;;;;;24.30;33.50;;;;;;490809;242;1210;-75
2022/11/20 07:04:20;;;;;;;;;;;24.30;33.40;;;;;;490785;242;1273;-75
2022/11/20 07:06:22;;;;;;;;;;;24.30;33.60;;;;;;490855;242;2200;-74
2022/11/20 07:08:23;;;;;;;;;;;24.30;33.50;;;;;;490798;242;1214;-75
2022/11/20 07:10:24;;;;;;;;;;;24.30;33.20;;;;;;490869;242;1294;-75
2022/11/20 07:12:26;;;;;;;;;;;24.30;33.60;;;;;;490827;242;1328;-75
2022/11/20 07:14:27;;;;;;;;;;;24.30;33.70;;;;;;490764;242;1289;-75
2022/11/20 07:16:28;;;;;;;;;;;24.30;33.30;;;;;;490763;242;1200;-75
2022/11/20 07:18:30;;;;;;;;;;;24.30;33.70;;;;;;490803;242;1315;-75
2022/11/20 07:20:31;;;;;;;;;;;24.30;33.70;;;;;;490825;242;1307;-75
2022/11/20 07:22:32;;;;;;;;;;;24.20;33.30;;;;;;490776;242;1161;-75
2022/11/20 07:24:34;;;;;;;;;;;24.20;33.70;;;;;;490815;242;1272;-75
2022/11/20 07:26:35;;;;;;;;;;;24.30;33.50;;;;;;490790;242;2180;-75
2022/11/20 07:28:36;;;;;;;;;;;24.30;33.20;;;;;;490835;242;1196;-75
2022/11/20 07:30:38;;;;;;;;;;;24.30;33.60;;;;;;490869;242;1332;-75
2022/11/20 07:32:39;;;;;;;;;;;24.20;33.40;;;;;;490838;242;1212;-75
2022/11/20 07:34:41;;;;;;;;;;;24.20;33.60;;;;;;490861;242;1360;-75
2022/11/20 07:36:42;;;;;;;;;;;24.20;33.50;;;;;;490798;242;1341;-75
2022/11/20 07:38:43;;;;;;;;;;;24.20;33.50;;;;;;490812;242;1169;-75
2022/11/20 07:40:45;;;;;;;;;;;24.10;33.80;;;;;;490864;242;1162;-75
2022/11/20 07:42:46;;;;;;;;;;;24.10;33.40;;;;;;490896;242;1162;-75
2022/11/20 07:44:47;;;;;;;;;;;24.10;33.50;;;;;;490779;242;1186;-75
2022/11/20 07:46:49;;;;;;;;;;;24.10;33.90;;;;;;490829;242;2176;-75
2022/11/20 07:48:50;;;;;;;;;;;24.10;33.50;;;;;;490834;242;1225;-75
2022/11/20 07:50:51;;;;;;;;;;;24.10;33.70;;;;;;490897;242;1285;-75
2022/11/20 07:52:53;;;;;;;;;;;24.20;33.80;;;;;;490823;242;1174;-75
2022/11/20 07:54:54;;;;;;;;;;;24.20;33.30;;;;;;490809;242;1137;-75
2022/11/20 07:56:55;;;;;;;;;;;24.10;33.80;;;;;;490853;242;1382;-75
2022/11/20 07:58:57;;;;;;;;;;;24.10;33.60;;;;;;490773;242;1204;-75
2022/11/20 08:00:58;;;;;;;;;;;24.10;33.60;;;;;;490867;242;1161;-75
2022/11/20 08:02:59;;;;;;;;;;;24.10;33.90;;;;;;490790;242;1315;-75
2022/11/20 08:05:01;;;;;;;;;;;24.10;33.50;;;;;;490764;242;1277;-75
2022/11/20 08:07:02;;;;;;;;;;;24.10;33.80;;;;;;490879;242;2180;-75
2022/11/20 08:09:03;;;;;;;;;;;24.10;33.60;;;;;;490749;242;1216;-75
2022/11/20 08:15:43;;;;;;;;;;;24.00;33.90;;;;;;490715;243;1347;-75
2022/11/20 08:17:45;;;;;;;;;;;24.10;33.90;;;;;;490793;242;1208;-75
2022/11/20 08:19:46;;;;;;;;;;;24.10;34.00;;;;;;490723;242;1210;-75
2022/11/20 08:21:47;;;;;;;;;;;24.10;33.50;;;;;;490806;242;1198;-75
2022/11/20 08:23:49;;;;;;;;;;;24.10;33.90;;;;;;490726;242;1297;-75
2022/11/20 08:25:50;;;;;;;;;;;24.00;33.90;;;;;;490752;242;1185;-75
2022/11/20 08:27:51;;;;;;;;;;;24.00;33.50;;;;;;490851;242;2192;-75
2022/11/20 08:29:53;;;;;;;;;;;24.00;33.70;;;;;;490787;242;1186;-75
2022/11/20 08:31:54;;;;;;;;;;;24.00;34.10;;;;;;490707;242;1166;-75
2022/11/20 08:33:55;;;;;;;;;;;24.00;33.80;;;;;;490810;242;1325;-75
2022/11/20 08:35:57;;;;;;;;;;;24.00;34.10;;;;;;490758;242;1320;-75
2022/11/20 08:37:58;;;;;;;;;;;24.00;33.80;;;;;;490804;242;1435;-75
2022/11/20 08:39:59;;;;;;;;;;;24.00;33.90;;;;;;490798;242;1338;-75
2022/11/20 08:42:01;;;;;;;;;;;24.00;34.20;;;;;;490798;242;1276;-75
2022/11/20 08:44:02;;;;;;;;;;;24.00;33.80;;;;;;490854;242;1212;-75
2022/11/20 08:46:03;;;;;;;;;;;24.00;33.70;;;;;;490817;242;1259;-75
2022/11/20 08:48:05;;;;;;;;;;;24.10;33.70;;;;;;490830;242;2141;-75
2022/11/20 08:50:06;;;;;;;;;;;24.00;34.10;;;;;;490730;242;1269;-75
2022/11/20 08:52:07;;;;;;;;;;;24.00;33.80;;;;;;490793;242;1205;-75
2022/11/20 08:54:09;;;;;;;;;;;24.00;34.10;;;;;;490821;242;1213;-75
2022/11/20 08:56:10;;;;;;;;;;;24.00;33.80;;;;;;490876;242;1289;-75
2022/11/20 08:58:11;;;;;;;;;;;23.90;34.20;;;;;;490762;242;1557;-75
2022/11/20 09:00:13;;;;;;;;;;;23.80;34.20;;;;;;490739;242;1176;-75
2022/11/20 09:02:15;;;;;;;;;;;23.70;34.50;;;;;;490736;242;1389;-75
2022/11/20 09:04:15;;;;;;;;;;;23.70;34.60;;;;;;490717;242;1273;-75
2022/11/20 09:06:17;;;;;;;;;;;23.70;34.30;;;;;;490637;242;1270;-74
2022/11/20 09:08:18;;;;;;;;;;;23.60;34.60;;;;;;490748;242;2121;-75
2022/11/20 09:10:19;;;;;;;;;;;23.70;34.30;;;;;;490762;242;1227;-75
2022/11/20 09:12:21;;;;;;;;;;;23.80;34.60;;;;;;490783;242;1508;-75
2022/11/20 09:14:24;;;;;;;;;;;24.00;34.00;;;;;;490833;242;1268;-75
2022/11/20 09:16:23;;;;;;;;;;;24.00;33.80;;;;;;490638;243;1455;-75
2022/11/20 09:18:25;;;;;;;;;;;24.00;33.80;;;;;;490781;242;1588;-75
2022/11/20 09:20:26;;;;;;;;;;;24.00;34.20;;;;;;490807;242;1177;-75
2022/11/20 09:22:27;;;;;;;;;;;24.00;33.80;;;;;;490843;242;1146;-75
2022/11/20 09:24:29;;;;;;;;;;;24.00;34.20;;;;;;490771;242;1492;-75
2022/11/20 09:26:30;;;;;;;;;;;24.00;33.80;;;;;;490920;242;2181;-75
2022/11/20 09:28:31;;;;;;;;;;;24.00;33.90;;;;;;490832;242;1154;-75
2022/11/20 09:30:33;;;;;;;;;;;24.00;33.90;;;;;;490855;242;1197;-75
2022/11/20 09:32:34;;;;;;;;;;;24.00;34.20;;;;;;490885;242;1222;-75
2022/11/20 09:34:35;;;;;;;;;;;24.00;33.90;;;;;;490833;242;1343;-75
2022/11/20 09:36:37;;;;;;;;;;;24.00;34.10;;;;;;490905;242;1195;-75
2022/11/20 09:38:38;;;;;;;;;;;24.00;33.90;;;;;;490888;242;1144;-75
2022/11/20 09:40:39;;;;;;;;;;;24.10;33.90;;;;;;490955;242;1154;-75
2022/11/20 09:42:41;;;;;;;;;;;24.10;33.90;;;;;;490950;242;1313;-75
2022/11/20 09:44:42;;;;;;;;;;;24.00;34.00;;;;;;490933;242;1244;-75
2022/11/20 09:46:43;;;;;;;;;;;24.10;33.70;;;;;;490845;242;2192;-75
2022/11/20 09:48:45;;;;;;;;;;;24.10;34.10;;;;;;490783;242;1284;-75
2022/11/20 09:50:48;;;;;;;;;;;24.10;33.80;;;;;;490879;242;1186;-75
2022/11/20 09:52:49;;;;;;;;;;;24.00;34.20;;;;;;490830;242;1274;-75
2022/11/20 09:54:50;;;;;;;;;;;24.00;33.80;;;;;;490957;242;1239;-75
2022/11/20 09:56:52;;;;;;;;;;;24.00;34.00;;;;;;490786;242;1184;-75
2022/11/20 09:58:53;;;;;;;;;;;24.00;34.10;;;;;;490706;242;1164;-75
2022/11/20 10:00:56;;;;;;;;;;;24.00;33.80;;;;;;490761;242;1175;-75
2022/11/20 10:02:56;;;;;;;;;;;24.10;34.20;;;;;;490794;243;1421;-75
2022/11/20 10:04:57;;;;;;;;;;;24.10;33.90;;;;;;490794;242;1250;-75
2022/11/20 10:06:58;;;;;;;;;;;24.10;33.80;;;;;;490831;242;2191;-75
2022/11/20 10:09:00;;;;;;;;;;;24.10;34.00;;;;;;490832;242;1173;-75
2022/11/20 10:11:01;;;;;;;;;;;24.10;33.70;;;;;;490780;242;1265;-75
2022/11/20 10:13:03;;;;;;;;;;;24.10;34.00;;;;;;490839;242;1288;-75
2022/11/20 10:15:04;;;;;;;;;;;24.00;34.20;;;;;;490862;242;1213;-75
2022/11/20 10:17:05;;;;;;;;;;;24.10;34.00;;;;;;490758;242;1288;-75
2022/11/20 10:19:06;;;;;;;;;;;24.10;34.30;;;;;;490866;242;1167;-75
2022/11/20 10:21:08;;;;;;;;;;;24.10;34.00;;;;;;490803;242;1180;-75
2022/11/20 10:23:09;;;;;;;;;;;24.10;34.30;;;;;;490820;242;1167;-74
2022/11/20 10:25:10;;;;;;;;;;;24.20;34.20;;;;;;490833;242;1217;-75
2022/11/20 10:27:12;;;;;;;;;;;24.10;33.80;;;;;;490805;242;2184;-75
2022/11/20 10:29:13;;;;;;;;;;;24.20;34.10;;;;;;490962;242;1158;-75
2022/11/20 10:31:15;;;;;;;;;;;24.20;34.00;;;;;;490870;242;1378;-75
2022/11/20 10:33:16;;;;;;;;;;;24.10;34.20;;;;;;490841;242;1277;-75
2022/11/20 10:35:17;;;;;;;;;;;24.10;34.00;;;;;;490791;242;1195;-75
2022/11/20 10:37:19;;;;;;;;;;;24.10;34.30;;;;;;490816;242;1130;-75
2022/11/20 10:39:20;;;;;;;;;;;24.10;34.00;;;;;;490812;242;1427;-75
2022/11/20 10:41:24;;;;;;;;;;;24.10;34.40;;;;;;490802;242;1286;-75
2022/11/20 10:43:26;;;;;;;;;;;24.20;34.10;;;;;;490744;242;1228;-75
2022/11/20 10:45:27;;;;;;;;;;;24.10;34.50;;;;;;490722;242;1305;-75
2022/11/20 10:47:28;;;;;;;;;;;24.10;34.50;;;;;;490763;242;2199;-75
2022/11/20 10:49:30;;;;;;;;;;;24.20;34.20;;;;;;490762;242;1286;-75
2022/11/20 10:51:31;;;;;;;;;;;24.20;34.40;;;;;;490782;242;1609;-75
2022/11/20 10:53:32;;;;;;;;;;;24.20;34.20;;;;;;490711;242;1176;-75
2022/11/20 10:55:34;;;;;;;;;;;24.20;34.10;;;;;;490673;242;1297;-75
2022/11/20 10:57:35;;;;;;;;;;;24.20;34.30;;;;;;490750;242;1342;-75
2022/11/20 10:59:36;;;;;;;;;;;24.20;34.50;;;;;;490733;242;1168;-75
2022/11/20 11:01:38;;;;;;;;;;;24.30;34.10;;;;;;490771;242;1218;-75
2022/11/20 11:03:39;;;;;;;;;;;24.30;34.50;;;;;;490782;242;1280;-75
2022/11/20 11:05:40;;;;;;;;;;;24.30;34.60;;;;;;490799;242;1201;-75
2022/11/20 11:07:42;;;;;;;;;;;24.30;34.30;;;;;;490819;242;2192;-75
2022/11/20 11:09:43;;;;;;;;;;;24.30;34.60;;;;;;490791;242;1189;-75
2022/11/20 11:11:45;;;;;;;;;;;24.30;34.40;;;;;;490904;242;1177;-75
2022/11/20 11:13:46;;;;;;;;;;;24.20;34.70;;;;;;490890;242;1185;-75
2022/11/20 11:15:47;;;;;;;;;;;24.30;34.90;;;;;;490844;242;1249;-75
2022/11/20 11:17:49;;;;;;;;;;;24.40;34.70;;;;;;490890;242;1206;-75
2022/11/20 11:19:50;;;;;;;;;;;24.30;34.40;;;;;;490892;242;1205;-75
2022/11/20 11:21:52;;;;;;;;;;;24.30;35.00;;;;;;490894;242;1234;-75
2022/11/20 11:23:53;;;;;;;;;;;24.20;35.00;;;;;;490785;243;1486;-75
2022/11/20 11:25:54;;;;;;;;;;;24.20;34.70;;;;;;490766;242;1173;-75
2022/11/20 11:27:56;;;;;;;;;;;24.20;35.10;;;;;;490750;242;2192;-75
2022/11/20 11:29:57;;;;;;;;;;;24.10;35.10;;;;;;490757;242;1338;-75
2022/11/20 11:31:58;;;;;;;;;;;24.20;34.70;;;;;;490841;242;1234;-75
2022/11/20 11:33:59;;;;;;;;;;;24.10;35.00;;;;;;490780;242;1291;-75
2022/11/20 11:36:01;;;;;;;;;;;24.10;35.00;;;;;;490828;242;1547;-75
2022/11/20 11:38:02;;;;;;;;;;;24.10;34.80;;;;;;490805;242;1130;-75
2022/11/20 11:40:03;;;;;;;;;;;24.10;35.10;;;;;;490794;242;1197;-75
2022/11/20 11:42:05;;;;;;;;;;;24.10;35.30;;;;;;490704;242;1217;-75
2022/11/20 11:46:26;;;;;;;;;;;24.10;35.00;;;;;;490780;243;1278;-75
2022/11/20 11:48:27;;;;;;;;;;;24.10;35.60;;;;;;490766;242;2172;-75
2022/11/20 11:50:28;;;;;;;;;;;24.10;35.30;;;;;;490830;242;1349;-75
2022/11/20 11:52:30;;;;;;;;;;;24.10;35.00;;;;;;490842;242;1312;-75
2022/11/20 11:54:31;;;;;;;;;;;24.10;35.60;;;;;;490808;242;1331;-75
2022/11/20 11:56:32;;;;;;;;;;;24.10;35.60;;;;;;490784;242;1323;-75
2022/11/20 11:58:34;;;;;;;;;;;24.10;35.60;;;;;;490711;242;1233;-75
2022/11/20 12:00:35;;;;;;;;;;;24.00;35.10;;;;;;490827;242;1252;-75
2022/11/20 12:02:37;;;;;;;;;;;24.00;35.60;;;;;;490852;242;1288;-75
2022/11/20 12:04:38;;;;;;;;;;;24.10;35.70;;;;;;490770;242;1357;-75
2022/11/20 12:06:39;;;;;;;;;;;24.10;35.10;;;;;;490855;242;1227;-75
2022/11/20 12:08:41;;;;;;;;;;;24.00;35.50;;;;;;490809;242;2161;-75